sensor_id;sensor_type;location;lat;lon;timestamp;P1;durP1;ratioP1;P2;durP2;ratioP2
36745;SDS011;22715;52.182;21.206;2022-09-27T00:00:43;22.75;;;16.83;;
36745;SDS011;22715;52.182;21.206;2022-09-27T00:03:09;21.80;;;16.38;;
36745;SDS011;22715;52.182;21.206;2022-09-27T00:05:34;18.77;;;16.48;;
36745;SDS011;22715;52.182;21.206;2022-09-27T00:07:59;23.77;;;18.23;;
36745;SDS011;22715;52.182;21.206;2022-09-27T00:10:25;27.80;;;17.05;;
36745;SDS011;22715;52.182;21.206;2022-09-27T00:12:50;25.70;;;19.27;;
36745;SDS011;22715;52.182;21.206;2022-09-27T00:15:16;25.77;;;18.55;;
36745;SDS011;22715;52.182;21.206;2022-09-27T00:17:41;24.38;;;18.83;;
36745;SDS011;22715;52.182;21.206;2022-09-27T00:20:07;23.23;;;17.58;;
36745;SDS011;22715;52.182;21.206;2022-09-27T00:22:32;25.63;;;18.23;;
36745;SDS011;22715;52.182;21.206;2022-09-27T00:24:58;24.13;;;17.48;;
36745;SDS011;22715;52.182;21.206;2022-09-27T00:27:24;25.42;;;20.45;;
36745;SDS011;22715;52.182;21.206;2022-09-27T00:29:49;22.10;;;17.60;;
36745;SDS011;22715;52.182;21.206;2022-09-27T00:32:14;25.95;;;17.65;;
36745;SDS011;22715;52.182;21.206;2022-09-27T00:34:40;26.40;;;19.10;;
36745;SDS011;22715;52.182;21.206;2022-09-27T00:37:06;27.60;;;16.80;;
36745;SDS011;22715;52.182;21.206;2022-09-27T00:39:31;24.15;;;18.67;;
36745;SDS011;22715;52.182;21.206;2022-09-27T00:41:57;24.90;;;19.10;;
36745;SDS011;22715;52.182;21.206;2022-09-27T00:49:23;26.50;;;19.25;;
36745;SDS011;22715;52.182;21.206;2022-09-27T00:51:52;22.00;;;18.20;;
36745;SDS011;22715;52.182;21.206;2022-09-27T00:54:19;25.08;;;18.52;;
36745;SDS011;22715;52.182;21.206;2022-09-27T00:56:47;24.20;;;17.75;;
36745;SDS011;22715;52.182;21.206;2022-09-27T00:59:47;26.42;;;19.42;;
36745;SDS011;22715;52.182;21.206;2022-09-27T01:02:05;28.88;;;19.38;;
36745;SDS011;22715;52.182;21.206;2022-09-27T01:04:31;25.95;;;19.23;;
36745;SDS011;22715;52.182;21.206;2022-09-27T01:06:57;24.90;;;18.05;;
36745;SDS011;22715;52.182;21.206;2022-09-27T01:09:23;26.23;;;19.67;;
36745;SDS011;22715;52.182;21.206;2022-09-27T01:27:16;26.92;;;19.50;;
36745;SDS011;22715;52.182;21.206;2022-09-27T01:32:12;27.10;;;18.60;;
36745;SDS011;22715;52.182;21.206;2022-09-27T01:39:59;27.77;;;20.77;;
36745;SDS011;22715;52.182;21.206;2022-09-27T01:45:06;32.92;;;22.77;;
36745;SDS011;22715;52.182;21.206;2022-09-27T01:47:38;35.05;;;21.45;;
36745;SDS011;22715;52.182;21.206;2022-09-27T01:50:20;32.20;;;22.33;;
36745;SDS011;22715;52.182;21.206;2022-09-27T01:52:52;31.45;;;23.27;;
36745;SDS011;22715;52.182;21.206;2022-09-27T01:55:19;34.25;;;20.30;;
36745;SDS011;22715;52.182;21.206;2022-09-27T01:57:48;35.38;;;21.70;;
36745;SDS011;22715;52.182;21.206;2022-09-27T02:00:14;39.42;;;24.88;;
36745;SDS011;22715;52.182;21.206;2022-09-27T02:02:50;38.22;;;24.95;;
36745;SDS011;22715;52.182;21.206;2022-09-27T02:05:17;31.10;;;21.65;;
36745;SDS011;22715;52.182;21.206;2022-09-27T02:07:45;44.78;;;27.48;;
36745;SDS011;22715;52.182;21.206;2022-09-27T02:10:17;40.38;;;25.17;;
36745;SDS011;22715;52.182;21.206;2022-09-27T02:15:27;40.15;;;27.02;;
36745;SDS011;22715;52.182;21.206;2022-09-27T02:18:00;46.78;;;26.50;;
36745;SDS011;22715;52.182;21.206;2022-09-27T02:20:30;39.50;;;26.30;;
36745;SDS011;22715;52.182;21.206;2022-09-27T02:25:27;39.58;;;25.95;;
36745;SDS011;22715;52.182;21.206;2022-09-27T02:30:20;44.22;;;29.17;;
36745;SDS011;22715;52.182;21.206;2022-09-27T02:32:45;47.22;;;28.55;;
36745;SDS011;22715;52.182;21.206;2022-09-27T02:35:22;46.28;;;26.75;;
36745;SDS011;22715;52.182;21.206;2022-09-27T02:37:48;46.55;;;27.98;;
36745;SDS011;22715;52.182;21.206;2022-09-27T02:40:15;49.47;;;28.50;;
36745;SDS011;22715;52.182;21.206;2022-09-27T02:42:41;49.08;;;28.42;;
36745;SDS011;22715;52.182;21.206;2022-09-27T02:45:06;47.97;;;27.77;;
36745;SDS011;22715;52.182;21.206;2022-09-27T02:52:34;46.75;;;28.35;;
36745;SDS011;22715;52.182;21.206;2022-09-27T03:00:14;49.83;;;29.15;;
36745;SDS011;22715;52.182;21.206;2022-09-27T03:05:14;44.95;;;27.60;;
36745;SDS011;22715;52.182;21.206;2022-09-27T03:07:41;45.40;;;31.88;;
36745;SDS011;22715;52.182;21.206;2022-09-27T03:10:06;43.42;;;29.33;;
36745;SDS011;22715;52.182;21.206;2022-09-27T03:12:39;50.00;;;29.15;;
36745;SDS011;22715;52.182;21.206;2022-09-27T03:15:04;55.22;;;30.75;;
36745;SDS011;22715;52.182;21.206;2022-09-27T03:17:30;47.17;;;29.55;;
36745;SDS011;22715;52.182;21.206;2022-09-27T03:19:55;49.90;;;29.98;;
36745;SDS011;22715;52.182;21.206;2022-09-27T03:22:21;50.88;;;31.13;;
36745;SDS011;22715;52.182;21.206;2022-09-27T03:24:46;46.53;;;30.95;;
36745;SDS011;22715;52.182;21.206;2022-09-27T03:27:11;49.80;;;30.33;;
36745;SDS011;22715;52.182;21.206;2022-09-27T03:29:37;50.63;;;28.60;;
36745;SDS011;22715;52.182;21.206;2022-09-27T03:32:02;50.58;;;30.48;;
36745;SDS011;22715;52.182;21.206;2022-09-27T03:34:28;49.72;;;29.67;;
36745;SDS011;22715;52.182;21.206;2022-09-27T03:36:53;48.28;;;31.65;;
36745;SDS011;22715;52.182;21.206;2022-09-27T03:39:19;49.85;;;29.50;;
36745;SDS011;22715;52.182;21.206;2022-09-27T03:41:45;49.40;;;31.52;;
36745;SDS011;22715;52.182;21.206;2022-09-27T03:44:11;54.90;;;30.90;;
36745;SDS011;22715;52.182;21.206;2022-09-27T03:46:36;54.28;;;32.03;;
36745;SDS011;22715;52.182;21.206;2022-09-27T03:49:01;50.10;;;32.80;;
36745;SDS011;22715;52.182;21.206;2022-09-27T03:51:27;58.30;;;36.60;;
36745;SDS011;22715;52.182;21.206;2022-09-27T03:53:52;58.55;;;34.13;;
36745;SDS011;22715;52.182;21.206;2022-09-27T03:56:18;54.30;;;31.85;;
36745;SDS011;22715;52.182;21.206;2022-09-27T03:58:43;60.22;;;34.50;;
36745;SDS011;22715;52.182;21.206;2022-09-27T04:01:09;58.13;;;35.67;;
36745;SDS011;22715;52.182;21.206;2022-09-27T04:03:34;57.50;;;35.13;;
36745;SDS011;22715;52.182;21.206;2022-09-27T04:06:00;56.03;;;34.63;;
36745;SDS011;22715;52.182;21.206;2022-09-27T04:08:27;61.10;;;33.42;;
36745;SDS011;22715;52.182;21.206;2022-09-27T04:10:56;54.38;;;34.95;;
36745;SDS011;22715;52.182;21.206;2022-09-27T04:13:21;56.60;;;34.28;;
36745;SDS011;22715;52.182;21.206;2022-09-27T04:15:46;57.03;;;33.53;;
36745;SDS011;22715;52.182;21.206;2022-09-27T04:18:14;47.85;;;31.33;;
36745;SDS011;22715;52.182;21.206;2022-09-27T04:20:39;49.30;;;30.80;;
36745;SDS011;22715;52.182;21.206;2022-09-27T04:23:05;51.25;;;30.23;;
36745;SDS011;22715;52.182;21.206;2022-09-27T04:25:42;54.75;;;30.00;;
36745;SDS011;22715;52.182;21.206;2022-09-27T04:28:07;50.88;;;31.88;;
36745;SDS011;22715;52.182;21.206;2022-09-27T04:30:36;55.67;;;33.00;;
36745;SDS011;22715;52.182;21.206;2022-09-27T04:33:01;52.28;;;29.40;;
36745;SDS011;22715;52.182;21.206;2022-09-27T04:35:27;50.50;;;30.23;;
36745;SDS011;22715;52.182;21.206;2022-09-27T04:38:11;52.75;;;31.17;;
36745;SDS011;22715;52.182;21.206;2022-09-27T04:40:38;46.35;;;28.63;;
36745;SDS011;22715;52.182;21.206;2022-09-27T04:43:03;53.13;;;28.10;;
36745;SDS011;22715;52.182;21.206;2022-09-27T04:45:29;59.58;;;28.75;;
36745;SDS011;22715;52.182;21.206;2022-09-27T04:47:54;50.63;;;29.50;;
36745;SDS011;22715;52.182;21.206;2022-09-27T04:50:20;54.35;;;26.05;;
36745;SDS011;22715;52.182;21.206;2022-09-27T04:52:49;54.75;;;29.70;;
36745;SDS011;22715;52.182;21.206;2022-09-27T04:55:15;49.80;;;31.98;;
36745;SDS011;22715;52.182;21.206;2022-09-27T04:57:40;52.38;;;27.02;;
36745;SDS011;22715;52.182;21.206;2022-09-27T05:00:06;54.78;;;28.60;;
36745;SDS011;22715;52.182;21.206;2022-09-27T05:02:34;52.20;;;29.05;;
36745;SDS011;22715;52.182;21.206;2022-09-27T05:04:59;49.72;;;30.63;;
36745;SDS011;22715;52.182;21.206;2022-09-27T05:07:25;57.20;;;30.30;;
36745;SDS011;22715;52.182;21.206;2022-09-27T05:09:51;52.85;;;32.67;;
36745;SDS011;22715;52.182;21.206;2022-09-27T05:12:17;54.75;;;30.33;;
36745;SDS011;22715;52.182;21.206;2022-09-27T05:14:46;49.65;;;28.77;;
36745;SDS011;22715;52.182;21.206;2022-09-27T05:17:11;52.50;;;30.77;;
36745;SDS011;22715;52.182;21.206;2022-09-27T05:19:37;54.83;;;31.60;;
36745;SDS011;22715;52.182;21.206;2022-09-27T05:22:05;60.75;;;31.17;;
36745;SDS011;22715;52.182;21.206;2022-09-27T05:24:31;55.60;;;27.77;;
36745;SDS011;22715;52.182;21.206;2022-09-27T05:26:57;54.40;;;30.67;;
36745;SDS011;22715;52.182;21.206;2022-09-27T05:29:25;55.75;;;30.17;;
36745;SDS011;22715;52.182;21.206;2022-09-27T05:31:53;51.95;;;27.92;;
36745;SDS011;22715;52.182;21.206;2022-09-27T05:34:24;51.75;;;28.85;;
36745;SDS011;22715;52.182;21.206;2022-09-27T05:36:49;47.55;;;26.42;;
36745;SDS011;22715;52.182;21.206;2022-09-27T05:59:53;43.47;;;24.40;;
36745;SDS011;22715;52.182;21.206;2022-09-27T06:02:19;49.00;;;29.50;;
36745;SDS011;22715;52.182;21.206;2022-09-27T06:04:44;47.33;;;28.42;;
36745;SDS011;22715;52.182;21.206;2022-09-27T06:07:10;46.42;;;28.08;;
36745;SDS011;22715;52.182;21.206;2022-09-27T06:09:35;42.40;;;24.85;;
36745;SDS011;22715;52.182;21.206;2022-09-27T06:12:08;50.15;;;26.85;;
36745;SDS011;22715;52.182;21.206;2022-09-27T06:14:35;43.72;;;25.60;;
36745;SDS011;22715;52.182;21.206;2022-09-27T06:17:02;38.88;;;22.38;;
36745;SDS011;22715;52.182;21.206;2022-09-27T06:19:27;39.53;;;22.55;;
36745;SDS011;22715;52.182;21.206;2022-09-27T06:21:52;29.92;;;20.27;;
36745;SDS011;22715;52.182;21.206;2022-09-27T06:24:21;34.72;;;21.10;;
36745;SDS011;22715;52.182;21.206;2022-09-27T06:26:49;32.33;;;19.52;;
36745;SDS011;22715;52.182;21.206;2022-09-27T06:29:18;31.70;;;19.58;;
36745;SDS011;22715;52.182;21.206;2022-09-27T06:31:43;28.77;;;18.13;;
36745;SDS011;22715;52.182;21.206;2022-09-27T06:34:08;28.30;;;18.08;;
36745;SDS011;22715;52.182;21.206;2022-09-27T06:36:33;27.35;;;18.17;;
36745;SDS011;22715;52.182;21.206;2022-09-27T06:38:59;27.67;;;17.25;;
36745;SDS011;22715;52.182;21.206;2022-09-27T06:41:26;29.92;;;19.38;;
36745;SDS011;22715;52.182;21.206;2022-09-27T06:43:52;25.65;;;16.63;;
36745;SDS011;22715;52.182;21.206;2022-09-27T06:46:17;26.92;;;17.08;;
36745;SDS011;22715;52.182;21.206;2022-09-27T06:48:52;30.23;;;18.17;;
36745;SDS011;22715;52.182;21.206;2022-09-27T06:51:17;28.20;;;16.92;;
36745;SDS011;22715;52.182;21.206;2022-09-27T06:53:42;22.77;;;16.38;;
36745;SDS011;22715;52.182;21.206;2022-09-27T06:56:14;27.27;;;17.08;;
36745;SDS011;22715;52.182;21.206;2022-09-27T06:58:39;29.15;;;16.70;;
36745;SDS011;22715;52.182;21.206;2022-09-27T07:01:27;27.25;;;16.65;;
36745;SDS011;22715;52.182;21.206;2022-09-27T07:50:51;31.85;;;18.35;;
36745;SDS011;22715;52.182;21.206;2022-09-27T07:53:16;27.17;;;16.15;;
36745;SDS011;22715;52.182;21.206;2022-09-27T07:55:42;30.17;;;18.05;;
36745;SDS011;22715;52.182;21.206;2022-09-27T07:58:10;27.42;;;19.15;;
36745;SDS011;22715;52.182;21.206;2022-09-27T08:00:37;30.45;;;17.67;;
36745;SDS011;22715;52.182;21.206;2022-09-27T08:03:03;27.67;;;17.52;;
36745;SDS011;22715;52.182;21.206;2022-09-27T08:05:28;26.40;;;16.70;;
36745;SDS011;22715;52.182;21.206;2022-09-27T08:07:54;26.92;;;16.35;;
36745;SDS011;22715;52.182;21.206;2022-09-27T08:10:20;26.83;;;15.95;;
36745;SDS011;22715;52.182;21.206;2022-09-27T08:12:45;27.90;;;17.58;;
36745;SDS011;22715;52.182;21.206;2022-09-27T08:15:11;31.55;;;18.08;;
36745;SDS011;22715;52.182;21.206;2022-09-27T08:17:36;30.48;;;16.88;;
36745;SDS011;22715;52.182;21.206;2022-09-27T08:20:02;22.45;;;17.67;;
36745;SDS011;22715;52.182;21.206;2022-09-27T08:22:30;27.65;;;18.63;;
36745;SDS011;22715;52.182;21.206;2022-09-27T08:24:55;26.45;;;17.60;;
36745;SDS011;22715;52.182;21.206;2022-09-27T08:27:21;23.45;;;15.23;;
36745;SDS011;22715;52.182;21.206;2022-09-27T08:29:46;25.38;;;16.17;;
36745;SDS011;22715;52.182;21.206;2022-09-27T08:32:11;19.77;;;14.40;;
36745;SDS011;22715;52.182;21.206;2022-09-27T08:34:37;22.30;;;15.20;;
36745;SDS011;22715;52.182;21.206;2022-09-27T08:37:02;21.48;;;14.00;;
36745;SDS011;22715;52.182;21.206;2022-09-27T08:39:28;18.70;;;12.65;;
36745;SDS011;22715;52.182;21.206;2022-09-27T08:49:38;18.08;;;12.70;;
36745;SDS011;22715;52.182;21.206;2022-09-27T08:52:06;15.45;;;12.65;;
36745;SDS011;22715;52.182;21.206;2022-09-27T08:54:34;20.13;;;11.90;;
36745;SDS011;22715;52.182;21.206;2022-09-27T08:57:00;15.30;;;11.48;;
36745;SDS011;22715;52.182;21.206;2022-09-27T08:59:28;17.95;;;11.88;;
36745;SDS011;22715;52.182;21.206;2022-09-27T09:01:54;14.98;;;11.68;;
36745;SDS011;22715;52.182;21.206;2022-09-27T09:04:34;12.95;;;10.13;;
36745;SDS011;22715;52.182;21.206;2022-09-27T09:07:08;13.70;;;10.27;;
36745;SDS011;22715;52.182;21.206;2022-09-27T09:09:39;14.70;;;10.30;;
36745;SDS011;22715;52.182;21.206;2022-09-27T09:25:44;13.43;;;8.80;;
36745;SDS011;22715;52.182;21.206;2022-09-27T09:28:22;10.90;;;8.80;;
36745;SDS011;22715;52.182;21.206;2022-09-27T09:30:55;10.98;;;7.90;;
36745;SDS011;22715;52.182;21.206;2022-09-27T09:33:27;10.25;;;8.75;;
36745;SDS011;22715;52.182;21.206;2022-09-27T09:36:37;10.50;;;8.50;;
36745;SDS011;22715;52.182;21.206;2022-09-27T09:38:44;11.75;;;9.18;;
36745;SDS011;22715;52.182;21.206;2022-09-27T09:43:53;12.07;;;8.13;;
36745;SDS011;22715;52.182;21.206;2022-09-27T09:46:22;10.13;;;8.35;;
36745;SDS011;22715;52.182;21.206;2022-09-27T09:51:35;10.40;;;8.52;;
36745;SDS011;22715;52.182;21.206;2022-09-27T09:56:58;9.52;;;7.95;;
36745;SDS011;22715;52.182;21.206;2022-09-27T10:02:01;11.98;;;9.40;;
36745;SDS011;22715;52.182;21.206;2022-09-27T10:04:32;10.80;;;8.48;;
36745;SDS011;22715;52.182;21.206;2022-09-27T10:06:58;9.98;;;8.35;;
36745;SDS011;22715;52.182;21.206;2022-09-27T10:09:25;11.30;;;8.60;;
36745;SDS011;22715;52.182;21.206;2022-09-27T10:11:51;10.93;;;9.65;;
36745;SDS011;22715;52.182;21.206;2022-09-27T10:14:17;11.40;;;9.25;;
36745;SDS011;22715;52.182;21.206;2022-09-27T10:16:44;10.90;;;8.68;;
36745;SDS011;22715;52.182;21.206;2022-09-27T10:19:12;12.77;;;10.05;;
36745;SDS011;22715;52.182;21.206;2022-09-27T10:21:39;15.48;;;10.40;;
36745;SDS011;22715;52.182;21.206;2022-09-27T10:24:16;19.48;;;10.57;;
36745;SDS011;22715;52.182;21.206;2022-09-27T10:26:43;12.68;;;8.75;;
36745;SDS011;22715;52.182;21.206;2022-09-27T10:31:43;12.05;;;10.02;;
36745;SDS011;22715;52.182;21.206;2022-09-27T10:34:54;10.98;;;9.38;;
36745;SDS011;22715;52.182;21.206;2022-09-27T10:37:14;12.27;;;9.70;;
36745;SDS011;22715;52.182;21.206;2022-09-27T10:39:41;9.93;;;7.97;;
36745;SDS011;22715;52.182;21.206;2022-09-27T10:44:51;9.13;;;7.80;;
36745;SDS011;22715;52.182;21.206;2022-09-27T10:47:19;11.13;;;8.35;;
36745;SDS011;22715;52.182;21.206;2022-09-27T10:49:47;11.52;;;8.15;;
36745;SDS011;22715;52.182;21.206;2022-09-27T10:52:16;11.65;;;7.60;;
36745;SDS011;22715;52.182;21.206;2022-09-27T10:54:50;10.27;;;7.05;;
36745;SDS011;22715;52.182;21.206;2022-09-27T10:57:17;9.15;;;7.60;;
36745;SDS011;22715;52.182;21.206;2022-09-27T10:59:45;9.15;;;7.80;;
36745;SDS011;22715;52.182;21.206;2022-09-27T11:02:21;8.20;;;6.25;;
36745;SDS011;22715;52.182;21.206;2022-09-27T11:07:35;11.77;;;8.13;;
36745;SDS011;22715;52.182;21.206;2022-09-27T11:10:02;15.50;;;8.32;;
36745;SDS011;22715;52.182;21.206;2022-09-27T11:12:39;12.27;;;7.75;;
36745;SDS011;22715;52.182;21.206;2022-09-27T11:15:06;11.13;;;8.98;;
36745;SDS011;22715;52.182;21.206;2022-09-27T11:17:42;13.25;;;10.55;;
36745;SDS011;22715;52.182;21.206;2022-09-27T11:20:13;9.20;;;8.10;;
36745;SDS011;22715;52.182;21.206;2022-09-27T11:25:19;15.65;;;10.10;;
36745;SDS011;22715;52.182;21.206;2022-09-27T11:30:19;9.90;;;7.07;;
36745;SDS011;22715;52.182;21.206;2022-09-27T11:33:08;9.30;;;7.60;;
36745;SDS011;22715;52.182;21.206;2022-09-27T11:38:16;9.73;;;8.13;;
36745;SDS011;22715;52.182;21.206;2022-09-27T11:46:00;11.00;;;7.85;;
36745;SDS011;22715;52.182;21.206;2022-09-27T11:48:32;12.27;;;8.68;;
36745;SDS011;22715;52.182;21.206;2022-09-27T11:53:53;11.10;;;8.35;;
36745;SDS011;22715;52.182;21.206;2022-09-27T11:56:35;13.35;;;9.70;;
36745;SDS011;22715;52.182;21.206;2022-09-27T12:09:37;11.35;;;7.20;;
36745;SDS011;22715;52.182;21.206;2022-09-27T12:12:25;11.90;;;9.27;;
36745;SDS011;22715;52.182;21.206;2022-09-27T12:17:51;8.73;;;7.72;;
36745;SDS011;22715;52.182;21.206;2022-09-27T12:25:15;12.05;;;9.63;;
36745;SDS011;22715;52.182;21.206;2022-09-27T12:27:45;10.35;;;8.45;;
36745;SDS011;22715;52.182;21.206;2022-09-27T12:32:43;10.10;;;7.68;;
36745;SDS011;22715;52.182;21.206;2022-09-27T12:35:27;10.27;;;7.72;;
36745;SDS011;22715;52.182;21.206;2022-09-27T12:38:12;11.60;;;8.48;;
36745;SDS011;22715;52.182;21.206;2022-09-27T12:40:46;9.57;;;8.40;;
36745;SDS011;22715;52.182;21.206;2022-09-27T12:46:02;8.60;;;7.53;;
36745;SDS011;22715;52.182;21.206;2022-09-27T12:51:15;10.32;;;7.15;;
36745;SDS011;22715;52.182;21.206;2022-09-27T12:54:01;8.30;;;7.53;;
36745;SDS011;22715;52.182;21.206;2022-09-27T13:01:59;8.55;;;7.75;;
36745;SDS011;22715;52.182;21.206;2022-09-27T13:04:59;12.27;;;8.35;;
36745;SDS011;22715;52.182;21.206;2022-09-27T13:10:17;11.93;;;7.35;;
36745;SDS011;22715;52.182;21.206;2022-09-27T13:12:49;8.20;;;7.40;;
36745;SDS011;22715;52.182;21.206;2022-09-27T13:17:49;8.40;;;6.60;;
36745;SDS011;22715;52.182;21.206;2022-09-27T13:22:59;8.02;;;6.53;;
36745;SDS011;22715;52.182;21.206;2022-09-27T13:41:23;7.93;;;7.13;;
36745;SDS011;22715;52.182;21.206;2022-09-27T13:43:56;8.38;;;7.55;;
36745;SDS011;22715;52.182;21.206;2022-09-27T13:46:23;7.45;;;6.32;;
36745;SDS011;22715;52.182;21.206;2022-09-27T13:51:49;6.97;;;6.35;;
36745;SDS011;22715;52.182;21.206;2022-09-27T13:57:02;6.57;;;5.97;;
36745;SDS011;22715;52.182;21.206;2022-09-27T13:59:32;7.10;;;6.40;;
36745;SDS011;22715;52.182;21.206;2022-09-27T14:07:05;8.55;;;6.95;;
36745;SDS011;22715;52.182;21.206;2022-09-27T14:09:38;8.15;;;6.97;;
36745;SDS011;22715;52.182;21.206;2022-09-27T14:12:11;9.63;;;7.80;;
36745;SDS011;22715;52.182;21.206;2022-09-27T14:14:36;9.43;;;6.88;;
36745;SDS011;22715;52.182;21.206;2022-09-27T14:17:05;13.40;;;7.95;;
36745;SDS011;22715;52.182;21.206;2022-09-27T14:19:37;9.15;;;7.03;;
36745;SDS011;22715;52.182;21.206;2022-09-27T14:22:02;11.25;;;7.50;;
36745;SDS011;22715;52.182;21.206;2022-09-27T14:24:31;6.65;;;5.75;;
36745;SDS011;22715;52.182;21.206;2022-09-27T14:27:14;6.20;;;5.60;;
36745;SDS011;22715;52.182;21.206;2022-09-27T14:29:45;8.13;;;6.95;;
36745;SDS011;22715;52.182;21.206;2022-09-27T14:32:12;6.57;;;5.78;;
36745;SDS011;22715;52.182;21.206;2022-09-27T14:34:37;7.35;;;6.53;;
36745;SDS011;22715;52.182;21.206;2022-09-27T14:37:03;6.70;;;4.85;;
36745;SDS011;22715;52.182;21.206;2022-09-27T14:39:55;6.60;;;5.32;;
36745;SDS011;22715;52.182;21.206;2022-09-27T14:42:21;6.78;;;5.97;;
36745;SDS011;22715;52.182;21.206;2022-09-27T14:44:57;5.68;;;4.90;;
36745;SDS011;22715;52.182;21.206;2022-09-27T14:47:25;6.18;;;5.57;;
36745;SDS011;22715;52.182;21.206;2022-09-27T14:52:21;6.18;;;5.57;;
36745;SDS011;22715;52.182;21.206;2022-09-27T14:54:55;6.70;;;5.40;;
36745;SDS011;22715;52.182;21.206;2022-09-27T14:57:21;7.03;;;6.30;;
36745;SDS011;22715;52.182;21.206;2022-09-27T14:59:47;7.47;;;6.53;;
36745;SDS011;22715;52.182;21.206;2022-09-27T15:02:21;6.93;;;6.22;;
36745;SDS011;22715;52.182;21.206;2022-09-27T15:04:49;8.20;;;5.95;;
36745;SDS011;22715;52.182;21.206;2022-09-27T15:07:16;8.60;;;6.60;;
36745;SDS011;22715;52.182;21.206;2022-09-27T15:09:41;11.38;;;7.43;;
36745;SDS011;22715;52.182;21.206;2022-09-27T15:12:08;7.82;;;7.03;;
36745;SDS011;22715;52.182;21.206;2022-09-27T15:14:35;9.27;;;6.95;;
36745;SDS011;22715;52.182;21.206;2022-09-27T15:17:05;6.75;;;5.88;;
36745;SDS011;22715;52.182;21.206;2022-09-27T15:19:31;10.50;;;7.15;;
36745;SDS011;22715;52.182;21.206;2022-09-27T15:22:43;7.15;;;6.45;;
36745;SDS011;22715;52.182;21.206;2022-09-27T15:24:44;7.25;;;6.55;;
36745;SDS011;22715;52.182;21.206;2022-09-27T15:27:22;8.50;;;6.97;;
36745;SDS011;22715;52.182;21.206;2022-09-27T15:29:49;7.85;;;6.15;;
36745;SDS011;22715;52.182;21.206;2022-09-27T15:32:16;7.43;;;6.57;;
36745;SDS011;22715;52.182;21.206;2022-09-27T15:34:42;8.40;;;6.53;;
36745;SDS011;22715;52.182;21.206;2022-09-27T15:37:27;9.30;;;7.30;;
36745;SDS011;22715;52.182;21.206;2022-09-27T15:39:55;7.88;;;6.72;;
36745;SDS011;22715;52.182;21.206;2022-09-27T15:42:29;8.65;;;7.35;;
36745;SDS011;22715;52.182;21.206;2022-09-27T15:45:31;9.25;;;7.50;;
36745;SDS011;22715;52.182;21.206;2022-09-27T15:48:12;8.05;;;6.70;;
36745;SDS011;22715;52.182;21.206;2022-09-27T15:50:37;9.60;;;7.45;;
36745;SDS011;22715;52.182;21.206;2022-09-27T15:53:04;9.63;;;8.07;;
36745;SDS011;22715;52.182;21.206;2022-09-27T15:55:31;8.43;;;7.30;;
36745;SDS011;22715;52.182;21.206;2022-09-27T15:58:02;7.70;;;6.13;;
36745;SDS011;22715;52.182;21.206;2022-09-27T16:00:29;8.57;;;6.13;;
36745;SDS011;22715;52.182;21.206;2022-09-27T16:02:54;8.70;;;5.93;;
36745;SDS011;22715;52.182;21.206;2022-09-27T16:05:20;8.02;;;6.32;;
36745;SDS011;22715;52.182;21.206;2022-09-27T16:07:47;7.90;;;6.63;;
36745;SDS011;22715;52.182;21.206;2022-09-27T16:10:13;12.50;;;8.65;;
36745;SDS011;22715;52.182;21.206;2022-09-27T16:12:40;11.10;;;7.95;;
36745;SDS011;22715;52.182;21.206;2022-09-27T16:15:06;14.27;;;9.60;;
36745;SDS011;22715;52.182;21.206;2022-09-27T16:17:31;9.60;;;7.53;;
36745;SDS011;22715;52.182;21.206;2022-09-27T16:19:56;11.30;;;7.75;;
36745;SDS011;22715;52.182;21.206;2022-09-27T16:22:24;14.60;;;9.32;;
36745;SDS011;22715;52.182;21.206;2022-09-27T16:24:50;10.55;;;7.97;;
36745;SDS011;22715;52.182;21.206;2022-09-27T16:27:25;8.65;;;7.78;;
36745;SDS011;22715;52.182;21.206;2022-09-27T16:29:51;12.27;;;8.35;;
36745;SDS011;22715;52.182;21.206;2022-09-27T16:32:17;13.00;;;8.52;;
36745;SDS011;22715;52.182;21.206;2022-09-27T16:34:42;11.77;;;7.82;;
36745;SDS011;22715;52.182;21.206;2022-09-27T16:37:07;11.85;;;7.93;;
36745;SDS011;22715;52.182;21.206;2022-09-27T16:39:34;12.20;;;9.80;;
36745;SDS011;22715;52.182;21.206;2022-09-27T16:41:59;11.95;;;7.88;;
36745;SDS011;22715;52.182;21.206;2022-09-27T16:44:28;9.63;;;8.07;;
36745;SDS011;22715;52.182;21.206;2022-09-27T16:46:54;12.73;;;8.75;;
36745;SDS011;22715;52.182;21.206;2022-09-27T16:49:19;11.95;;;9.20;;
36745;SDS011;22715;52.182;21.206;2022-09-27T16:52:03;15.20;;;8.77;;
36745;SDS011;22715;52.182;21.206;2022-09-27T16:54:29;11.10;;;8.35;;
36745;SDS011;22715;52.182;21.206;2022-09-27T16:56:55;11.40;;;9.15;;
36745;SDS011;22715;52.182;21.206;2022-09-27T16:59:20;12.90;;;9.30;;
36745;SDS011;22715;52.182;21.206;2022-09-27T17:01:46;11.02;;;9.02;;
36745;SDS011;22715;52.182;21.206;2022-09-27T17:04:12;17.80;;;9.50;;
36745;SDS011;22715;52.182;21.206;2022-09-27T17:06:38;14.40;;;10.00;;
36745;SDS011;22715;52.182;21.206;2022-09-27T17:09:03;18.55;;;10.27;;
36745;SDS011;22715;52.182;21.206;2022-09-27T17:11:29;11.68;;;9.95;;
36745;SDS011;22715;52.182;21.206;2022-09-27T17:13:54;16.73;;;11.52;;
36745;SDS011;22715;52.182;21.206;2022-09-27T17:16:20;13.30;;;9.95;;
36745;SDS011;22715;52.182;21.206;2022-09-27T17:18:45;14.23;;;10.35;;
36745;SDS011;22715;52.182;21.206;2022-09-27T17:21:10;16.88;;;11.23;;
36745;SDS011;22715;52.182;21.206;2022-09-27T17:23:36;16.42;;;10.82;;
36745;SDS011;22715;52.182;21.206;2022-09-27T17:26:23;17.38;;;10.70;;
36745;SDS011;22715;52.182;21.206;2022-09-27T17:28:47;15.88;;;10.75;;
36745;SDS011;22715;52.182;21.206;2022-09-27T17:31:14;18.95;;;11.63;;
36745;SDS011;22715;52.182;21.206;2022-09-27T17:33:40;14.02;;;10.23;;
36745;SDS011;22715;52.182;21.206;2022-09-27T17:36:08;14.25;;;10.00;;
36745;SDS011;22715;52.182;21.206;2022-09-27T17:38:33;14.10;;;9.57;;
36745;SDS011;22715;52.182;21.206;2022-09-27T17:41:03;19.70;;;12.80;;
36745;SDS011;22715;52.182;21.206;2022-09-27T17:43:28;21.05;;;13.57;;
36745;SDS011;22715;52.182;21.206;2022-09-27T17:46:05;20.88;;;13.50;;
36745;SDS011;22715;52.182;21.206;2022-09-27T17:48:31;25.25;;;14.10;;
36745;SDS011;22715;52.182;21.206;2022-09-27T17:51:15;17.10;;;14.40;;
36745;SDS011;22715;52.182;21.206;2022-09-27T17:53:40;17.52;;;12.05;;
36745;SDS011;22715;52.182;21.206;2022-09-27T17:56:06;14.70;;;10.13;;
36745;SDS011;22715;52.182;21.206;2022-09-27T17:58:31;13.95;;;10.60;;
36745;SDS011;22715;52.182;21.206;2022-09-27T18:01:06;13.48;;;10.48;;
36745;SDS011;22715;52.182;21.206;2022-09-27T18:03:32;13.95;;;11.57;;
36745;SDS011;22715;52.182;21.206;2022-09-27T18:05:57;12.73;;;9.88;;
36745;SDS011;22715;52.182;21.206;2022-09-27T18:08:24;13.60;;;10.18;;
36745;SDS011;22715;52.182;21.206;2022-09-27T18:10:52;12.43;;;9.77;;
36745;SDS011;22715;52.182;21.206;2022-09-27T18:13:17;14.98;;;11.00;;
36745;SDS011;22715;52.182;21.206;2022-09-27T18:15:42;13.13;;;11.15;;
36745;SDS011;22715;52.182;21.206;2022-09-27T18:18:08;14.93;;;11.05;;
36745;SDS011;22715;52.182;21.206;2022-09-27T18:20:33;13.70;;;10.77;;
36745;SDS011;22715;52.182;21.206;2022-09-27T18:22:59;15.30;;;10.07;;
36745;SDS011;22715;52.182;21.206;2022-09-27T18:25:24;16.20;;;11.57;;
36745;SDS011;22715;52.182;21.206;2022-09-27T18:27:51;14.40;;;10.88;;